createdAt,value
2023-02-24T00:01:39.963Z,22.50
2023-02-24T00:04:12.824Z,22.43
2023-02-24T00:06:42.287Z,21.87
2023-02-24T00:09:19.320Z,22.30
2023-02-24T00:12:10.655Z,22.07
2023-02-24T00:14:40.287Z,21.83
2023-02-24T00:17:08.638Z,22.60
2023-02-24T00:19:36.424Z,21.80
2023-02-24T00:22:05.009Z,20.10
2023-02-24T00:24:33.600Z,21.80
2023-02-24T00:27:07.432Z,21.33
2023-02-24T00:29:34.333Z,19.67
2023-02-24T00:32:02.403Z,22.83
2023-02-24T00:34:30.983Z,21.60
2023-02-24T00:36:58.674Z,22.60
2023-02-24T00:39:33.121Z,24.53
2023-02-24T00:42:07.132Z,24.37
2023-02-24T00:44:44.527Z,22.47
2023-02-24T00:47:12.175Z,25.33
2023-02-24T00:49:43.347Z,21.37
2023-02-24T00:52:13.876Z,23.97
2023-02-24T00:54:44.437Z,23.50
2023-02-24T00:57:12.118Z,23.97
2023-02-24T00:59:39.591Z,23.60
2023-02-24T01:02:07.347Z,24.60
2023-02-24T01:04:34.574Z,24.97
2023-02-24T01:07:01.812Z,23.83
2023-02-24T01:09:30.952Z,25.47
2023-02-24T01:12:16.996Z,25.70
2023-02-24T01:14:47.709Z,23.30
2023-02-24T01:17:16.101Z,23.10
2023-02-24T01:19:44.356Z,24.40
2023-02-24T01:22:15.129Z,24.27
2023-02-24T01:24:43.698Z,23.47
2023-02-24T01:27:17.676Z,24.70
2023-02-24T01:29:45.316Z,22.70
2023-02-24T01:32:21.573Z,24.30
2023-02-24T01:34:52.134Z,23.43
2023-02-24T01:37:20.064Z,22.53
2023-02-24T01:39:47.889Z,23.83
2023-02-24T01:42:19.696Z,23.80
2023-02-24T01:44:46.574Z,23.20
2023-02-24T01:47:14.925Z,22.83
2023-02-24T01:49:45.964Z,24.17
2023-02-24T01:52:24.742Z,20.70
2023-02-24T01:54:55.268Z,22.30
2023-02-24T01:57:26.185Z,22.00
2023-02-24T02:00:02.089Z,20.93
2023-02-24T02:02:29.574Z,22.57
2023-02-24T02:05:06.131Z,21.20
2023-02-24T02:07:33.220Z,20.53
2023-02-24T02:10:03.999Z,20.20
2023-02-24T02:12:37.068Z,20.57
2023-02-24T02:15:05.626Z,21.03
2023-02-24T02:17:42.103Z,22.40
2023-02-24T02:20:31.230Z,22.23
2023-02-24T02:23:19.715Z,20.67
2023-02-24T02:25:58.497Z,22.73
2023-02-24T02:28:54.035Z,22.43
2023-02-24T02:31:33.217Z,18.27
2023-02-24T02:34:18.904Z,21.67
2023-02-24T02:37:14.786Z,22.47
2023-02-24T02:39:59.284Z,20.63
2023-02-24T02:42:39.042Z,22.80
2023-02-24T02:45:24.457Z,21.33
2023-02-24T02:47:58.404Z,22.00
2023-02-24T02:50:33.011Z,21.80
2023-02-24T02:53:14.071Z,22.87
2023-02-24T02:55:53.466Z,22.23
2023-02-24T02:58:26.447Z,23.43
2023-02-24T03:01:05.051Z,25.03
2023-02-24T03:03:49.223Z,24.77
2023-02-24T03:06:24.533Z,24.60
2023-02-24T03:09:14.752Z,23.00
2023-02-24T03:12:07.868Z,25.57
2023-02-24T03:14:39.300Z,24.07
2023-02-24T03:17:17.351Z,24.83
2023-02-24T03:19:47.044Z,23.83
2023-02-24T03:22:40.967Z,23.50
2023-02-24T03:25:08.982Z,23.47
2023-02-24T03:27:46.976Z,23.30
2023-02-24T03:30:21.326Z,24.47
2023-02-24T03:33:07.313Z,22.40
2023-02-24T03:35:44.784Z,22.60
2023-02-24T03:38:14.093Z,22.87
2023-02-24T03:40:43.455Z,24.73
2023-02-24T03:43:23.002Z,23.83
2023-02-24T03:45:50.020Z,25.07
2023-02-24T03:48:17.416Z,23.00
2023-02-24T03:50:45.033Z,23.80
2023-02-24T03:53:33.190Z,23.47
2023-02-24T03:56:18.793Z,23.30
2023-02-24T03:58:59.588Z,23.73
2023-02-24T04:01:32.825Z,23.07
2023-02-24T04:04:10.864Z,23.90
2023-02-24T04:06:47.120Z,24.00
2023-02-24T04:09:21.756Z,23.87
2023-02-24T04:11:56.523Z,22.27
2023-02-24T04:14:30.724Z,23.30
2023-02-24T04:17:09.023Z,25.07
2023-02-24T04:19:40.527Z,25.10
2023-02-24T04:22:10.515Z,26.03
2023-02-24T04:24:39.538Z,26.10
2023-02-24T04:27:11.453Z,28.33
2023-02-24T04:29:47.305Z,27.90
2023-02-24T04:32:17.556Z,27.20
2023-02-24T04:34:45.581Z,27.57
2023-02-24T04:37:12.385Z,27.30
2023-02-24T04:39:39.267Z,30.20
2023-02-24T04:42:06.553Z,29.20
2023-02-24T04:44:33.365Z,27.97
2023-02-24T04:47:00.697Z,28.43
2023-02-24T04:49:27.696Z,28.23
2023-02-24T04:51:54.458Z,29.53
2023-02-24T04:54:21.402Z,30.10
2023-02-24T04:56:50.706Z,28.60
2023-02-24T04:59:21.741Z,29.50
2023-02-24T05:01:53.043Z,30.03
2023-02-24T05:04:20.131Z,32.80
2023-02-24T05:06:47.121Z,32.27
2023-02-24T05:09:18.566Z,31.50
2023-02-24T05:11:51.729Z,33.67
2023-02-24T05:14:21.195Z,31.43
2023-02-24T05:16:49.262Z,33.10
2023-02-24T05:19:37.552Z,33.10
2023-02-24T05:22:07.078Z,31.77
2023-02-24T05:24:34.713Z,30.27
2023-02-24T05:27:03.673Z,33.53
2023-02-24T05:29:34.494Z,33.13
2023-02-24T05:32:02.511Z,35.30
2023-02-24T05:34:30.975Z,31.97
2023-02-24T05:36:59.554Z,34.00
2023-02-24T05:39:26.583Z,32.40
2023-02-24T05:41:54.813Z,32.83
2023-02-24T05:44:23.350Z,35.13
2023-02-24T05:46:56.709Z,33.77
2023-02-24T05:49:31.300Z,36.70
2023-02-24T05:52:00.829Z,34.27
2023-02-24T05:54:30.740Z,33.07
2023-02-24T05:57:07.028Z,35.30
2023-02-24T05:59:34.418Z,33.10
2023-02-24T06:02:09.896Z,33.50
2023-02-24T06:04:45.896Z,32.47
2023-02-24T06:07:14.170Z,34.73
2023-02-24T06:09:45.007Z,34.83
2023-02-24T06:12:14.502Z,37.20
2023-02-24T06:14:42.239Z,37.00
2023-02-24T06:17:09.381Z,33.13
2023-02-24T06:19:36.356Z,35.90
2023-02-24T06:22:03.863Z,34.60
2023-02-24T06:24:33.089Z,36.73
2023-02-24T06:27:09.837Z,35.93
2023-02-24T06:29:37.696Z,33.57
2023-02-24T06:32:10.912Z,36.00
2023-02-24T06:34:38.873Z,35.33
2023-02-24T06:37:07.356Z,37.50
2023-02-24T06:39:37.162Z,37.30
2023-02-24T06:42:05.236Z,37.87
2023-02-24T06:44:33.164Z,38.33
2023-02-24T06:47:00.432Z,37.80
2023-02-24T06:49:27.814Z,37.80
2023-02-24T06:51:55.638Z,38.13
2023-02-24T06:54:23.298Z,40.40
2023-02-24T06:56:50.369Z,39.93
2023-02-24T06:59:21.862Z,41.10
2023-02-24T07:01:49.434Z,41.47
2023-02-24T07:04:17.994Z,39.43
2023-02-24T07:06:52.310Z,46.43
2023-02-24T07:09:23.013Z,42.80
2023-02-24T07:11:55.941Z,40.57
2023-02-24T07:14:29.248Z,41.50
2023-02-24T07:16:58.026Z,42.73
2023-02-24T07:19:29.130Z,41.40
2023-02-24T07:22:02.012Z,43.13
2023-02-24T07:24:36.325Z,44.23
2023-02-24T07:27:06.249Z,39.50
2023-02-24T07:29:34.548Z,42.83
2023-02-24T07:32:03.755Z,43.77
2023-02-24T07:34:31.500Z,40.77
2023-02-24T07:36:58.655Z,41.00
2023-02-24T07:39:25.725Z,41.93
2023-02-24T07:41:57.114Z,40.60
2023-02-24T07:44:24.406Z,38.77
2023-02-24T07:46:51.683Z,39.83
2023-02-24T07:49:26.062Z,41.00
2023-02-24T07:51:57.624Z,41.77
2023-02-24T07:54:27.320Z,41.73
2023-02-24T07:56:57.214Z,41.30
2023-02-24T07:59:27.328Z,40.10
2023-02-24T08:01:55.969Z,42.20
2023-02-24T08:04:30.524Z,43.60
2023-02-24T08:07:02.487Z,42.40
2023-02-24T08:09:44.657Z,45.03
2023-02-24T08:12:17.849Z,42.80
2023-02-24T08:14:50.843Z,40.70
2023-02-24T08:17:26.852Z,41.70
2023-02-24T08:20:15.513Z,41.47
2023-02-24T08:22:44.455Z,40.37
2023-02-24T08:25:18.482Z,41.30
2023-02-24T08:28:06.408Z,41.10
2023-02-24T08:30:38.988Z,40.47
2023-02-24T08:33:09.151Z,41.53
2023-02-24T08:35:38.352Z,40.17
2023-02-24T08:38:07.777Z,39.50
2023-02-24T08:40:39.710Z,40.30
2023-02-24T08:43:31.155Z,41.30
2023-02-24T08:46:03.699Z,41.27
2023-02-24T08:48:38.866Z,41.53
2023-02-24T08:51:15.821Z,39.50
2023-02-24T08:53:44.087Z,39.67
2023-02-24T08:56:14.140Z,39.90
2023-02-24T08:58:49.588Z,39.23
2023-02-24T09:01:24.331Z,37.77
2023-02-24T09:03:55.414Z,38.97
2023-02-24T09:06:44.197Z,40.87
2023-02-24T09:09:21.439Z,38.20
2023-02-24T09:11:59.874Z,40.30
2023-02-24T09:14:36.395Z,38.57
2023-02-24T09:17:06.562Z,38.50
2023-02-24T09:19:51.867Z,38.30
2023-02-24T09:22:40.778Z,38.90
2023-02-24T09:25:19.112Z,38.07
2023-02-24T09:28:09.653Z,37.67
2023-02-24T09:30:51.354Z,34.00
2023-02-24T09:33:29.914Z,35.20
2023-02-24T09:36:20.235Z,37.40
2023-02-24T09:38:59.648Z,37.23
2023-02-24T09:41:54.752Z,33.63
2023-02-24T09:44:44.667Z,35.13
2023-02-24T09:47:53.436Z,35.77
2023-02-24T09:50:46.872Z,34.97
2023-02-24T09:53:17.387Z,35.40
2023-02-24T09:56:30.751Z,35.87
2023-02-24T09:59:10.325Z,33.00
2023-02-24T10:01:54.687Z,31.17
2023-02-24T10:04:49.247Z,30.97
2023-02-24T10:07:23.210Z,31.37
2023-02-24T10:10:19.868Z,28.00
2023-02-24T10:12:53.095Z,27.53
2023-02-24T10:16:07.400Z,27.90
2023-02-24T10:19:15.255Z,25.37
2023-02-24T10:22:03.321Z,24.97
2023-02-24T10:25:01.444Z,24.17
2023-02-24T10:27:41.364Z,20.03
2023-02-24T10:30:42.615Z,17.50
2023-02-24T10:33:38.902Z,18.33
2023-02-24T10:36:09.367Z,18.37
2023-02-24T10:38:45.574Z,17.17
2023-02-24T10:41:16.192Z,21.20
2023-02-24T10:43:56.771Z,19.80
2023-02-24T10:46:42.117Z,22.93
2023-02-24T10:49:16.383Z,24.37
2023-02-24T10:51:51.144Z,24.33
2023-02-24T10:54:45.506Z,27.20
2023-02-24T10:57:38.233Z,27.43
2023-02-24T11:00:51.188Z,28.93
2023-02-24T11:03:35.891Z,29.50
2023-02-24T11:06:03.644Z,35.07
2023-02-24T11:08:52.465Z,34.20
2023-02-24T11:11:30.858Z,37.47
2023-02-24T11:14:19.048Z,31.70
2023-02-24T11:17:10.321Z,33.10
2023-02-24T11:19:49.442Z,32.23
2023-02-24T11:22:39.553Z,30.63
2023-02-24T11:25:36.687Z,32.50
2023-02-24T11:28:05.586Z,32.77
2023-02-24T11:30:42.122Z,34.40
2023-02-24T11:33:41.239Z,35.80
2023-02-24T11:36:22.780Z,34.60
2023-02-24T11:39:18.899Z,33.73
2023-02-24T11:41:53.713Z,34.10
2023-02-24T11:44:47.488Z,32.97
2023-02-24T11:47:18.222Z,30.20
2023-02-24T11:50:16.217Z,32.93
2023-02-24T11:52:46.950Z,32.37
2023-02-24T11:55:40.047Z,33.80
2023-02-24T11:58:20.544Z,35.23
2023-02-24T12:01:25.676Z,34.70
2023-02-24T12:04:15.000Z,33.43
2023-02-24T12:07:19.647Z,31.90
2023-02-24T12:10:16.154Z,32.00
2023-02-24T12:12:59.731Z,32.30
2023-02-24T12:15:50.424Z,32.00
2023-02-24T12:18:27.714Z,30.60
2023-02-24T12:21:05.913Z,31.60
2023-02-24T12:23:41.964Z,29.77
2023-02-24T12:26:25.929Z,31.33
2023-02-24T12:29:07.588Z,31.00
2023-02-24T12:31:54.617Z,30.03
2023-02-24T12:34:55.151Z,28.30
2023-02-24T12:37:30.770Z,29.23
2023-02-24T12:40:16.220Z,27.13
2023-02-24T12:42:45.713Z,28.83
2023-02-24T12:45:17.271Z,29.07
2023-02-24T12:47:50.037Z,26.93
2023-02-24T12:50:27.500Z,25.60
2023-02-24T12:53:20.524Z,25.17
2023-02-24T12:56:11.726Z,23.37
2023-02-24T12:58:41.822Z,25.90
2023-02-24T13:01:46.812Z,25.37
2023-02-24T13:04:25.635Z,26.63
2023-02-24T13:07:09.866Z,25.63
2023-02-24T13:09:42.556Z,25.33
2023-02-24T13:12:09.494Z,28.30
2023-02-24T13:14:39.020Z,26.33
2023-02-24T13:17:11.880Z,28.07
2023-02-24T13:19:43.471Z,26.40
2023-02-24T13:22:13.008Z,25.67
2023-02-24T13:24:56.523Z,25.63
2023-02-24T13:27:38.986Z,27.93
2023-02-24T13:30:11.549Z,25.90
2023-02-24T13:32:59.715Z,27.17
2023-02-24T13:35:26.582Z,26.20
2023-02-24T13:37:53.954Z,27.80
2023-02-24T13:40:23.795Z,29.00
2023-02-24T13:42:57.114Z,27.13
2023-02-24T13:45:29.261Z,26.37
2023-02-24T13:48:10.996Z,29.27
2023-02-24T13:50:55.768Z,28.70
2023-02-24T13:53:47.124Z,26.40
2023-02-24T13:56:40.454Z,27.20
2023-02-24T13:59:31.669Z,26.23
2023-02-24T14:01:59.801Z,24.77
2023-02-24T14:04:36.252Z,25.73
2023-02-24T14:07:09.100Z,25.97
2023-02-24T14:09:45.015Z,25.57
2023-02-24T14:12:19.618Z,25.10
2023-02-24T14:14:47.710Z,24.20
2023-02-24T14:17:28.846Z,22.03
2023-02-24T14:20:14.455Z,20.80
2023-02-24T14:22:50.501Z,23.43
2023-02-24T14:25:18.032Z,19.60
2023-02-24T14:27:48.343Z,22.70
2023-02-24T14:30:26.443Z,23.03
2023-02-24T14:32:54.087Z,22.97
2023-02-24T14:35:46.322Z,22.97
2023-02-24T14:38:38.445Z,24.03
2023-02-24T14:41:07.977Z,20.63
2023-02-24T14:43:41.956Z,20.03
2023-02-24T14:46:08.806Z,20.07
2023-02-24T14:48:36.393Z,20.33
2023-02-24T14:51:21.165Z,22.97
2023-02-24T14:53:53.976Z,18.80
2023-02-24T14:56:23.781Z,22.50
2023-02-24T14:58:59.406Z,18.77
2023-02-24T15:01:43.575Z,19.07
2023-02-24T15:04:29.106Z,18.50
2023-02-24T15:06:56.055Z,20.93
2023-02-24T15:09:27.185Z,18.50
2023-02-24T15:11:56.184Z,19.37
2023-02-24T15:14:28.243Z,19.73
2023-02-24T15:16:58.075Z,20.43
2023-02-24T15:19:32.090Z,19.60
2023-02-24T15:21:59.003Z,19.77
2023-02-24T15:24:34.264Z,20.10
2023-02-24T15:27:25.932Z,17.47
2023-02-24T15:30:35.900Z,17.23
2023-02-24T15:33:24.716Z,19.00
2023-02-24T15:35:54.659Z,16.33
2023-02-24T15:38:25.068Z,16.00
2023-02-24T15:41:00.780Z,17.67
2023-02-24T15:43:37.338Z,15.53
2023-02-24T15:46:31.032Z,15.40
2023-02-24T15:49:02.951Z,15.50
2023-02-24T15:51:39.848Z,15.93
2023-02-24T15:54:11.231Z,16.80
2023-02-24T15:56:38.163Z,16.20
2023-02-24T15:59:06.085Z,14.30
2023-02-24T16:01:33.627Z,15.00
2023-02-24T16:04:01.086Z,15.97
2023-02-24T16:06:28.870Z,14.87
2023-02-24T16:08:57.072Z,15.00
2023-02-24T16:11:28.863Z,15.13
2023-02-24T16:14:05.084Z,15.30
2023-02-24T16:16:33.367Z,13.77
2023-02-24T16:19:15.872Z,14.70
2023-02-24T16:21:43.321Z,15.17
2023-02-24T16:24:10.230Z,16.40
2023-02-24T16:26:39.691Z,16.17
2023-02-24T16:29:11.780Z,17.20
2023-02-24T16:31:39.831Z,15.93
2023-02-24T16:34:07.887Z,15.30
2023-02-24T16:36:35.638Z,16.73
2023-02-24T16:39:04.866Z,14.37
2023-02-24T16:41:31.725Z,15.23
2023-02-24T16:43:58.529Z,15.40
2023-02-24T16:46:29.540Z,15.90
2023-02-24T16:48:56.361Z,16.87
2023-02-24T16:51:23.280Z,15.83
2023-02-24T16:53:50.199Z,15.13
2023-02-24T16:56:17.036Z,13.60
2023-02-24T16:58:43.922Z,14.50
2023-02-24T17:01:17.910Z,16.80
2023-02-24T17:03:47.243Z,15.67
2023-02-24T17:06:14.365Z,15.33
2023-02-24T17:08:46.146Z,15.23
2023-02-24T17:11:15.581Z,15.20
2023-02-24T17:13:42.451Z,16.10
2023-02-24T17:16:09.290Z,15.10
2023-02-24T17:18:36.457Z,17.30
2023-02-24T17:21:04.413Z,15.13
2023-02-24T17:23:32.348Z,16.40
2023-02-24T17:26:01.800Z,16.00
2023-02-24T17:28:28.862Z,15.87
2023-02-24T17:30:55.879Z,15.90
2023-02-24T17:33:23.010Z,15.60
2023-02-24T17:35:49.852Z,16.60
2023-02-24T17:38:19.291Z,14.60
2023-02-24T17:40:47.000Z,13.53
2023-02-24T17:43:14.061Z,13.00
2023-02-24T17:45:44.401Z,12.07
2023-02-24T17:48:13.464Z,12.20
2023-02-24T17:50:47.378Z,12.60
2023-02-24T17:53:15.067Z,11.43
2023-02-24T17:55:55.841Z,11.73
2023-02-24T17:58:26.710Z,11.73
2023-02-24T18:00:53.602Z,10.00
2023-02-24T18:03:20.517Z,11.20
2023-02-24T18:05:47.344Z,10.00
2023-02-24T18:08:14.642Z,9.40
2023-02-24T18:10:41.398Z,9.40
2023-02-24T18:13:08.173Z,8.70
2023-02-24T18:15:34.995Z,9.13
2023-02-24T18:18:01.729Z,9.37
2023-02-24T18:20:29.714Z,9.23
2023-02-24T18:22:57.190Z,8.60
2023-02-24T18:25:23.887Z,8.53
2023-02-24T18:27:50.597Z,8.57
2023-02-24T18:30:18.621Z,7.60
2023-02-24T18:32:45.874Z,9.13
2023-02-24T18:35:14.385Z,8.63
2023-02-24T18:37:43.855Z,8.90
2023-02-24T18:40:11.254Z,9.00
2023-02-24T18:42:38.730Z,7.63
2023-02-24T18:45:06.654Z,8.07
2023-02-24T18:47:33.498Z,8.27
2023-02-24T18:50:00.508Z,8.60
2023-02-24T18:52:27.368Z,9.10
2023-02-24T18:54:55.353Z,10.67
2023-02-24T18:57:22.211Z,10.20
2023-02-24T18:59:52.223Z,11.30
2023-02-24T19:02:19.009Z,11.90
2023-02-24T19:04:45.986Z,12.83
2023-02-24T19:07:13.317Z,10.90
2023-02-24T19:09:41.728Z,13.07
2023-02-24T19:12:08.956Z,14.10
2023-02-24T19:14:37.189Z,13.67
2023-02-24T19:17:04.085Z,13.40
2023-02-24T19:19:30.962Z,13.90
2023-02-24T19:21:57.839Z,14.90
2023-02-24T19:24:24.657Z,13.30
2023-02-24T19:26:53.247Z,14.80
2023-02-24T19:29:28.007Z,15.03
2023-02-24T19:31:57.543Z,14.60
2023-02-24T19:34:24.596Z,14.43
2023-02-24T19:36:51.640Z,15.53
2023-02-24T19:39:18.906Z,16.27
2023-02-24T19:41:47.027Z,14.70
2023-02-24T19:44:15.295Z,16.50
2023-02-24T19:46:43.111Z,16.80
2023-02-24T19:49:10.013Z,15.77
2023-02-24T19:51:37.027Z,15.87
2023-02-24T19:54:06.229Z,15.83
2023-02-24T19:56:37.217Z,18.47
2023-02-24T19:59:06.736Z,17.60
2023-02-24T20:01:33.891Z,17.67
2023-02-24T20:04:03.065Z,17.87
2023-02-24T20:06:35.727Z,16.70
2023-02-24T20:09:16.662Z,17.50
2023-02-24T20:11:45.475Z,15.80
2023-02-24T20:14:19.160Z,18.07
2023-02-24T20:16:47.292Z,17.10
2023-02-24T20:19:15.171Z,17.03
2023-02-24T20:21:42.450Z,16.73
2023-02-24T20:24:13.864Z,17.57
2023-02-24T20:26:44.744Z,18.63
2023-02-24T20:29:12.154Z,17.97
2023-02-24T20:31:40.510Z,17.63
2023-02-24T20:34:09.308Z,17.23
2023-02-24T20:36:36.546Z,17.73
2023-02-24T20:39:06.680Z,17.80
2023-02-24T20:41:34.468Z,17.33
2023-02-24T20:44:01.457Z,17.77
2023-02-24T20:46:31.279Z,17.97
2023-02-24T20:49:00.910Z,18.37
2023-02-24T20:51:29.490Z,19.53
2023-02-24T20:53:58.488Z,18.60
2023-02-24T20:56:27.853Z,18.57
2023-02-24T20:59:02.561Z,19.27
2023-02-24T21:01:31.231Z,18.37
2023-02-24T21:03:58.225Z,18.93
2023-02-24T21:06:26.146Z,16.47
2023-02-24T21:08:53.354Z,18.07
2023-02-24T21:11:22.250Z,19.40
2023-02-24T21:13:50.712Z,8.80
2023-02-24T21:16:19.065Z,7.30
2023-02-24T21:18:47.820Z,7.37
2023-02-24T21:21:15.398Z,5.93
2023-02-24T21:23:45.455Z,4.67
2023-02-24T21:26:12.969Z,3.30
2023-02-24T21:28:40.671Z,4.27
2023-02-24T21:31:13.170Z,3.57
2023-02-24T21:33:41.075Z,4.57
2023-02-24T21:36:10.901Z,6.33
2023-02-24T21:38:38.101Z,4.03
2023-02-24T21:41:07.863Z,10.50
2023-02-24T21:43:35.262Z,4.13
2023-02-24T21:46:05.535Z,4.97
2023-02-24T21:48:34.609Z,4.53
2023-02-24T21:51:06.283Z,15.50
2023-02-24T21:53:35.640Z,7.10
2023-02-24T21:56:17.542Z,6.23
2023-02-24T21:58:47.144Z,4.87
2023-02-24T22:01:17.246Z,5.10
2023-02-24T22:03:44.288Z,3.73
2023-02-24T22:06:13.067Z,3.20
2023-02-24T22:08:43.375Z,3.70
2023-02-24T22:11:12.460Z,3.40
2023-02-24T22:13:40.581Z,3.57
2023-02-24T22:16:13.962Z,7.90
2023-02-24T22:18:40.948Z,4.90
2023-02-24T22:21:09.502Z,5.53
2023-02-24T22:23:36.276Z,8.53
2023-02-24T22:26:08.941Z,4.63
2023-02-24T22:28:38.370Z,6.17
2023-02-24T22:31:06.612Z,5.60
2023-02-24T22:33:35.657Z,4.20
2023-02-24T22:36:04.173Z,4.90
2023-02-24T22:38:32.661Z,4.80
2023-02-24T22:41:05.113Z,5.00
2023-02-24T22:43:32.049Z,5.97
2023-02-24T22:46:05.091Z,4.77
2023-02-24T22:48:33.990Z,9.03
2023-02-24T22:51:02.637Z,4.93
2023-02-24T22:53:30.882Z,5.53
2023-02-24T22:55:58.008Z,5.27
2023-02-24T22:58:25.595Z,5.23
2023-02-24T23:00:56.478Z,5.87
2023-02-24T23:03:26.047Z,5.93
2023-02-24T23:05:55.983Z,4.60
2023-02-24T23:08:23.734Z,4.33
2023-02-24T23:10:50.679Z,6.30
2023-02-24T23:13:18.038Z,7.67
2023-02-24T23:15:44.989Z,5.20
2023-02-24T23:18:11.971Z,5.13
2023-02-24T23:20:38.687Z,5.03
2023-02-24T23:23:05.501Z,5.17
2023-02-24T23:25:32.231Z,4.80
2023-02-24T23:27:59.353Z,4.40
2023-02-24T23:30:26.103Z,5.17
2023-02-24T23:32:53.009Z,5.03
2023-02-24T23:35:19.888Z,4.83
2023-02-24T23:37:46.580Z,5.30
2023-02-24T23:40:16.717Z,5.23
2023-02-24T23:42:44.069Z,5.40
2023-02-24T23:45:11.126Z,5.20
2023-02-24T23:47:38.046Z,5.37
2023-02-24T23:50:05.020Z,5.87
2023-02-24T23:52:31.742Z,5.03
2023-02-24T23:54:58.508Z,4.97
2023-02-24T23:57:27.302Z,5.63
2023-02-24T23:59:54.189Z,5.47
